This is the latest recevied weather packets stored in our database for station/object N7NMS-13. If no packets are shown the sender has not sent any weather packets the latest 10 day(s).
| Time | Temp. | Humidity | Pressure | Rain* | Wind** | Luminosity | Snow |
|---|---|---|---|---|---|---|---|
| 1777926550 | 22.22° C | 43% | - | 0 mm | - | - | - |
| 1777925951 | 22.22° C | 42% | - | 0 mm | - | - | - |
| 1777925351 | 22.22° C | 44% | - | 0 mm | - | - | - |
| 1777924751 | 21.67° C | 46% | - | 0 mm | - | - | - |
| 1777924151 | 21.67° C | 47% | - | 0 mm | - | - | - |
| 1777923551 | 21.67° C | 45% | - | 0 mm | - | - | - |
| 1777922951 | 21.67° C | 47% | - | 0 mm | - | - | - |
| 1777922321 | 21.67° C | 47% | - | 0 mm | - | - | - |
| 1777921691 | 21.11° C | 46% | - | 0 mm | - | - | - |
| 1777921091 | 21.11° C | 47% | - | 0 mm | - | - | - |
| 1777920491 | 21.11° C | 46% | - | 0 mm | - | - | - |
| 1777919861 | 20.56° C | 47% | - | 0 mm | - | - | - |
| 1777919261 | 20.56° C | 48% | - | 0 mm | - | - | - |
| 1777918631 | 20.56° C | 47% | - | 0 mm | - | - | - |
| 1777918001 | 20.56° C | 45% | - | 0 mm | - | - | - |
| 1777917401 | 20.56° C | 45% | - | 0 mm | - | - | - |
| 1777916771 | 20.56° C | 44% | - | 0 mm | - | - | - |
| 1777916141 | 20° C | 45% | - | 0 mm | - | - | - |
| 1777915541 | 20.56° C | 44% | - | 0 mm | - | - | - |
| 1777914911 | 20.56° C | 44% | - | 0 mm | - | - | - |
| 1777914311 | 20° C | 44% | - | 0 mm | - | - | - |
| 1777913681 | 20.56° C | 42% | - | 0 mm | - | - | - |
| 1777913081 | 19.44° C | 47% | - | 0 mm | - | - | - |
| 1777912481 | 19.44° C | 45% | - | 0 mm | - | - | - |
| 1777911881 | 19.44° C | 45% | - | 0 mm | - | - | - |
* Rain latest hour (hover to see other rain measurements)
** Current wind speed in m/s (hover to see current wind gust speed)